createdAt,value
2023-04-16T00:02:03.045Z,18.20
2023-04-16T00:04:30.564Z,19.47
2023-04-16T00:06:57.625Z,18.80
2023-04-16T00:09:24.593Z,18.77
2023-04-16T00:11:51.546Z,19.97
2023-04-16T00:14:18.715Z,19.73
2023-04-16T00:16:46.020Z,20.00
2023-04-16T00:19:13.254Z,21.20
2023-04-16T00:21:40.278Z,21.37
2023-04-16T00:24:07.331Z,19.30
2023-04-16T00:26:34.322Z,21.17
2023-04-16T00:29:01.522Z,20.70
2023-04-16T00:31:30.883Z,20.70
2023-04-16T00:33:58.909Z,20.50
2023-04-16T00:36:27.803Z,20.30
2023-04-16T00:38:56.250Z,20.37
2023-04-16T00:41:23.846Z,21.30
2023-04-16T00:43:51.580Z,21.70
2023-04-16T00:46:21.242Z,21.37
2023-04-16T00:48:49.433Z,21.27
2023-04-16T00:51:20.477Z,21.60
2023-04-16T00:53:48.225Z,20.47
2023-04-16T00:56:15.666Z,21.97
2023-04-16T00:58:43.632Z,21.00
2023-04-16T01:01:10.588Z,20.50
2023-04-16T01:03:47.153Z,20.27
2023-04-16T01:06:17.095Z,21.90
2023-04-16T01:08:44.434Z,21.53
2023-04-16T01:11:12.177Z,20.63
2023-04-16T01:13:39.719Z,21.17
2023-04-16T01:16:12.078Z,21.47
2023-04-16T01:18:39.697Z,21.60
2023-04-16T01:21:06.903Z,20.80
2023-04-16T01:23:33.975Z,20.73
2023-04-16T01:26:01.046Z,21.80
2023-04-16T01:28:27.980Z,19.97
2023-04-16T01:30:54.939Z,20.40
2023-04-16T01:33:22.033Z,21.03
2023-04-16T01:35:49.037Z,20.67
2023-04-16T01:38:16.465Z,20.67
2023-04-16T01:40:43.664Z,22.50
2023-04-16T01:43:10.605Z,22.07
2023-04-16T01:45:37.519Z,22.30
2023-04-16T01:48:04.971Z,20.60
2023-04-16T01:50:32.487Z,20.03
2023-04-16T01:52:59.557Z,20.30
2023-04-16T01:55:26.986Z,20.27
2023-04-16T01:57:53.941Z,20.50
2023-04-16T02:00:21.120Z,19.37
2023-04-16T02:02:49.386Z,20.27
2023-04-16T02:05:16.783Z,20.97
2023-04-16T02:07:43.736Z,20.07
2023-04-16T02:10:10.819Z,20.13
2023-04-16T02:12:37.818Z,20.60
2023-04-16T02:15:05.978Z,19.90
2023-04-16T02:17:32.928Z,21.17
2023-04-16T02:19:59.849Z,19.73
2023-04-16T02:22:26.764Z,18.60
2023-04-16T02:24:53.854Z,19.10
2023-04-16T02:27:21.004Z,19.70
2023-04-16T02:29:47.882Z,19.30
2023-04-16T02:32:14.876Z,19.90
2023-04-16T02:34:42.993Z,19.50
2023-04-16T02:37:09.875Z,19.53
2023-04-16T02:39:36.859Z,19.50
2023-04-16T02:42:03.852Z,19.33
2023-04-16T02:44:30.838Z,19.83
2023-04-16T02:46:57.811Z,19.03
2023-04-16T02:49:24.767Z,21.07
2023-04-16T02:51:51.665Z,19.90
2023-04-16T02:54:18.550Z,21.50
2023-04-16T02:56:45.507Z,21.70
2023-04-16T02:59:12.413Z,20.93
2023-04-16T03:01:39.425Z,20.97
2023-04-16T03:04:06.518Z,21.23
2023-04-16T03:06:33.514Z,21.70
2023-04-16T03:09:00.480Z,22.67
2023-04-16T03:11:27.365Z,21.13
2023-04-16T03:13:54.325Z,22.93
2023-04-16T03:16:21.498Z,22.37
2023-04-16T03:18:48.541Z,21.97
2023-04-16T03:21:15.467Z,23.10
2023-04-16T03:23:42.446Z,21.47
2023-04-16T03:26:09.550Z,23.03
2023-04-16T03:28:36.482Z,24.67
2023-04-16T03:31:03.667Z,23.43
2023-04-16T03:33:30.732Z,22.37
2023-04-16T03:35:58.380Z,24.50
2023-04-16T03:38:28.397Z,24.50
2023-04-16T03:40:55.393Z,23.17
2023-04-16T03:43:22.405Z,24.13
2023-04-16T03:45:49.346Z,23.63
2023-04-16T03:48:16.463Z,23.50
2023-04-16T03:50:49.970Z,24.07
2023-04-16T03:53:17.088Z,22.43
2023-04-16T03:55:44.396Z,23.13
2023-04-16T03:58:11.360Z,23.67
2023-04-16T04:00:42.813Z,23.33
2023-04-16T04:03:11.444Z,22.70
2023-04-16T04:05:41.363Z,22.70
2023-04-16T04:08:09.530Z,22.27
2023-04-16T04:10:36.968Z,22.63
2023-04-16T04:13:06.210Z,22.83
2023-04-16T04:15:33.390Z,22.37
2023-04-16T04:18:00.613Z,21.80
2023-04-16T04:20:27.568Z,20.80
2023-04-16T04:22:54.512Z,21.77
2023-04-16T04:25:21.560Z,21.30
2023-04-16T04:27:48.567Z,21.40
2023-04-16T04:30:15.650Z,21.83
2023-04-16T04:32:42.628Z,22.20
2023-04-16T04:35:09.995Z,22.47
2023-04-16T04:37:36.921Z,23.40
2023-04-16T04:40:04.938Z,22.87
2023-04-16T04:42:31.907Z,22.33
2023-04-16T04:44:58.854Z,21.90
2023-04-16T04:47:25.904Z,23.70
2023-04-16T04:49:52.893Z,23.63
2023-04-16T04:52:20.555Z,22.77
2023-04-16T04:54:47.459Z,22.63
2023-04-16T04:57:14.387Z,22.90
2023-04-16T04:59:41.281Z,25.30
2023-04-16T05:02:08.246Z,23.27
2023-04-16T05:04:35.307Z,22.23
2023-04-16T05:07:02.697Z,24.13
2023-04-16T05:09:29.667Z,25.73
2023-04-16T05:11:57.656Z,26.37
2023-04-16T05:14:24.712Z,23.60
2023-04-16T05:16:51.676Z,25.00
2023-04-16T05:19:18.633Z,22.57
2023-04-16T05:21:45.621Z,24.97
2023-04-16T05:24:14.804Z,24.87
2023-04-16T05:26:41.971Z,24.70
2023-04-16T05:29:09.067Z,22.80
2023-04-16T05:31:36.375Z,23.40
2023-04-16T05:34:03.344Z,22.50
2023-04-16T05:36:30.285Z,21.80
2023-04-16T05:38:57.202Z,22.77
2023-04-16T05:41:24.243Z,23.13
2023-04-16T05:43:51.195Z,22.40
2023-04-16T05:46:18.165Z,24.73
2023-04-16T05:48:46.001Z,21.50
2023-04-16T05:51:12.900Z,20.10
2023-04-16T05:53:39.900Z,21.93
2023-04-16T05:56:07.679Z,20.73
2023-04-16T05:58:34.999Z,18.37
2023-04-16T06:01:02.236Z,18.33
2023-04-16T06:03:29.272Z,19.03
2023-04-16T06:05:56.640Z,19.80
2023-04-16T06:08:23.777Z,18.63
2023-04-16T06:10:51.286Z,20.23
2023-04-16T06:13:18.483Z,20.03
2023-04-16T06:15:45.526Z,18.70
2023-04-16T06:18:12.639Z,19.97
2023-04-16T06:20:39.617Z,18.23
2023-04-16T06:23:06.532Z,18.03
2023-04-16T06:25:33.432Z,19.50
2023-04-16T06:28:00.367Z,18.93
2023-04-16T06:30:27.310Z,17.93
2023-04-16T06:32:54.423Z,18.17
2023-04-16T06:35:21.476Z,18.80
2023-04-16T06:37:48.460Z,17.50
2023-04-16T06:40:15.607Z,18.93
2023-04-16T06:42:44.891Z,20.70
2023-04-16T06:45:13.155Z,19.30
2023-04-16T06:47:40.533Z,19.03
2023-04-16T06:50:08.134Z,18.27
2023-04-16T06:52:35.692Z,18.50
2023-04-16T06:55:03.182Z,18.30
2023-04-16T06:57:30.163Z,18.77
2023-04-16T06:59:57.128Z,18.60
2023-04-16T07:02:24.554Z,19.83
2023-04-16T07:04:52.430Z,19.77
2023-04-16T07:07:19.381Z,19.63
2023-04-16T07:09:46.346Z,17.77
2023-04-16T07:12:13.506Z,17.27
2023-04-16T07:14:40.554Z,17.80
2023-04-16T07:17:07.541Z,17.67
2023-04-16T07:19:35.236Z,19.20
2023-04-16T07:22:02.224Z,19.50
2023-04-16T07:24:29.227Z,18.73
2023-04-16T07:26:56.172Z,20.30
2023-04-16T07:29:23.226Z,17.50
2023-04-16T07:31:50.348Z,19.57
2023-04-16T07:34:17.309Z,18.50
2023-04-16T07:36:44.293Z,18.30
2023-04-16T07:39:12.230Z,17.70
2023-04-16T07:41:41.029Z,17.40
2023-04-16T07:44:08.210Z,18.10
2023-04-16T07:46:45.740Z,18.40
2023-04-16T07:49:14.560Z,17.27
2023-04-16T07:51:41.512Z,17.77
2023-04-16T07:54:08.417Z,17.60
2023-04-16T07:56:35.690Z,18.70
2023-04-16T07:59:14.362Z,18.07
2023-04-16T08:01:46.094Z,16.37
2023-04-16T08:04:14.219Z,17.27
2023-04-16T08:06:41.260Z,17.23
2023-04-16T08:09:08.562Z,16.53
2023-04-16T08:11:35.660Z,16.00
2023-04-16T08:14:02.608Z,16.70
2023-04-16T08:16:29.504Z,16.10
2023-04-16T08:18:56.396Z,20.17
2023-04-16T08:21:23.384Z,15.70
2023-04-16T08:23:50.476Z,22.30
2023-04-16T08:26:17.562Z,23.57
2023-04-16T08:28:44.509Z,31.10
2023-04-16T08:31:11.558Z,19.23
2023-04-16T08:33:38.565Z,17.73
2023-04-16T08:36:05.877Z,18.93
2023-04-16T08:38:32.898Z,16.13
2023-04-16T08:41:06.479Z,17.50
2023-04-16T08:43:37.807Z,27.40
2023-04-16T08:46:06.216Z,28.50
2023-04-16T08:48:35.187Z,21.50
2023-04-16T08:51:02.683Z,23.30
2023-04-16T08:53:54.683Z,19.30
2023-04-16T08:56:23.974Z,19.33
2023-04-16T08:58:54.888Z,16.60
2023-04-16T09:01:22.438Z,15.60
2023-04-16T09:03:49.904Z,16.00
2023-04-16T09:06:18.351Z,17.70
2023-04-16T09:08:46.501Z,16.27
2023-04-16T09:11:18.657Z,19.60
2023-04-16T09:13:47.763Z,26.70
2023-04-16T09:16:15.529Z,17.10
2023-04-16T09:18:42.648Z,16.30
2023-04-16T09:21:13.847Z,17.40
2023-04-16T09:23:41.332Z,16.90
2023-04-16T09:26:08.309Z,18.00
2023-04-16T09:28:47.983Z,14.97
2023-04-16T09:31:18.778Z,15.70
2023-04-16T09:34:05.593Z,15.70
2023-04-16T09:36:34.909Z,14.50
2023-04-16T09:39:03.777Z,13.90
2023-04-16T09:41:35.906Z,14.70
2023-04-16T09:44:05.188Z,14.57
2023-04-16T09:46:35.545Z,13.90
2023-04-16T09:49:18.940Z,12.80
2023-04-16T09:51:48.101Z,13.50
2023-04-16T09:54:15.712Z,14.37
2023-04-16T09:56:47.096Z,14.00
2023-04-16T09:59:21.037Z,15.40
2023-04-16T10:01:58.016Z,18.10
2023-04-16T10:04:51.802Z,16.30
2023-04-16T10:07:19.434Z,16.37
2023-04-16T10:09:48.693Z,15.30
2023-04-16T10:12:16.803Z,15.93
2023-04-16T10:14:44.120Z,16.00
2023-04-16T10:17:11.579Z,16.07
2023-04-16T10:19:38.843Z,21.60
2023-04-16T10:22:06.144Z,16.60
2023-04-16T10:24:34.927Z,25.00
2023-04-16T10:27:03.299Z,23.67
2023-04-16T10:29:32.056Z,16.60
2023-04-16T10:31:59.819Z,17.17
2023-04-16T10:34:27.398Z,16.13
2023-04-16T10:36:55.399Z,21.80
2023-04-16T10:39:25.190Z,17.63
2023-04-16T10:42:11.835Z,17.60
2023-04-16T10:44:43.493Z,17.37
2023-04-16T10:47:14.248Z,18.03
2023-04-16T10:49:42.725Z,18.53
2023-04-16T10:52:20.168Z,19.30
2023-04-16T10:54:50.280Z,19.13
2023-04-16T10:57:20.016Z,19.30
2023-04-16T10:59:49.305Z,19.50
2023-04-16T11:02:19.801Z,17.93
2023-04-16T11:04:49.488Z,18.40
2023-04-16T11:07:34.106Z,17.17
2023-04-16T11:10:07.999Z,17.30
2023-04-16T11:12:47.027Z,17.10
2023-04-16T11:15:16.226Z,16.63
2023-04-16T11:17:51.923Z,15.80
2023-04-16T11:20:28.916Z,15.43
2023-04-16T11:22:57.996Z,16.73
2023-04-16T11:25:29.515Z,17.47
2023-04-16T11:27:58.720Z,15.47
2023-04-16T11:30:36.937Z,15.40
2023-04-16T11:33:09.753Z,16.63
2023-04-16T11:35:39.510Z,16.80
2023-04-16T11:38:07.322Z,15.67
2023-04-16T11:40:35.142Z,15.10
2023-04-16T11:43:17.416Z,15.87
2023-04-16T11:46:16.134Z,15.33
2023-04-16T11:48:57.858Z,14.77
2023-04-16T11:51:24.822Z,15.30
2023-04-16T11:53:53.698Z,15.70
2023-04-16T11:56:32.949Z,14.90
2023-04-16T11:59:20.567Z,16.30
2023-04-16T12:01:53.512Z,15.50
2023-04-16T12:04:25.084Z,15.13
2023-04-16T12:07:14.713Z,12.87
2023-04-16T12:09:43.730Z,12.70
2023-04-16T12:12:28.076Z,11.70
2023-04-16T12:14:56.916Z,11.83
2023-04-16T12:17:24.348Z,11.93
2023-04-16T12:20:05.845Z,10.80
2023-04-16T12:22:37.079Z,12.33
2023-04-16T12:25:24.769Z,12.43
2023-04-16T12:27:55.798Z,18.20
2023-04-16T12:30:28.461Z,10.50
2023-04-16T12:33:16.786Z,10.20
2023-04-16T12:35:44.959Z,11.20
2023-04-16T12:38:12.509Z,10.50
2023-04-16T12:40:39.504Z,10.30
2023-04-16T12:43:06.568Z,10.20
2023-04-16T12:45:33.575Z,10.70
2023-04-16T12:48:00.721Z,10.97
2023-04-16T12:50:28.890Z,9.60
2023-04-16T12:52:57.194Z,11.20
2023-04-16T12:55:24.373Z,9.60
2023-04-16T12:57:53.037Z,9.60
2023-04-16T13:00:21.374Z,9.50
2023-04-16T13:02:48.431Z,8.83
2023-04-16T13:05:16.667Z,9.57
2023-04-16T13:07:43.765Z,8.73
2023-04-16T13:10:10.987Z,10.30
2023-04-16T13:12:37.914Z,10.80
2023-04-16T13:15:05.303Z,10.10
2023-04-16T13:17:32.392Z,11.70
2023-04-16T13:19:59.369Z,12.23
2023-04-16T13:22:26.474Z,10.40
2023-04-16T13:24:53.592Z,10.90
2023-04-16T13:27:20.873Z,11.90
2023-04-16T13:29:47.804Z,10.77
2023-04-16T13:32:15.154Z,11.97
2023-04-16T13:34:42.687Z,12.50
2023-04-16T13:37:09.602Z,10.73
2023-04-16T13:39:36.642Z,11.03
2023-04-16T13:42:04.356Z,11.47
2023-04-16T13:44:31.287Z,9.50
2023-04-16T13:46:58.644Z,10.70
2023-04-16T13:49:25.777Z,9.80
2023-04-16T13:51:52.682Z,9.40
2023-04-16T13:54:19.624Z,9.50
2023-04-16T13:56:46.605Z,10.07
2023-04-16T13:59:15.623Z,10.50
2023-04-16T14:01:42.638Z,10.77
2023-04-16T14:04:09.669Z,9.47
2023-04-16T14:06:36.628Z,8.90
2023-04-16T14:09:04.360Z,9.67
2023-04-16T14:11:31.675Z,9.20
2023-04-16T14:13:58.655Z,9.10
2023-04-16T14:16:26.408Z,10.27
2023-04-16T14:18:53.571Z,16.20
2023-04-16T14:21:20.652Z,15.03
2023-04-16T14:23:47.538Z,9.40
2023-04-16T14:26:14.587Z,8.93
2023-04-16T14:28:42.117Z,9.20
2023-04-16T14:31:09.153Z,9.30
2023-04-16T14:33:36.912Z,9.13
2023-04-16T14:36:04.344Z,9.17
2023-04-16T14:38:31.991Z,8.70
2023-04-16T14:41:00.352Z,8.80
2023-04-16T14:43:27.595Z,8.57
2023-04-16T14:45:54.638Z,7.53
2023-04-16T14:48:22.125Z,7.97
2023-04-16T14:50:49.100Z,7.30
2023-04-16T14:53:16.372Z,7.87
2023-04-16T14:55:43.332Z,7.23
2023-04-16T14:58:10.827Z,6.73
2023-04-16T15:00:38.155Z,6.50
2023-04-16T15:03:06.253Z,6.53
2023-04-16T15:05:33.915Z,6.30
2023-04-16T15:08:01.102Z,6.93
2023-04-16T15:10:28.342Z,7.30
2023-04-16T15:12:55.362Z,7.60
2023-04-16T15:15:22.482Z,6.57
2023-04-16T15:17:51.067Z,8.33
2023-04-16T15:20:18.386Z,7.90
2023-04-16T15:22:45.510Z,8.83
2023-04-16T15:25:12.645Z,8.20
2023-04-16T15:27:39.545Z,8.13
2023-04-16T15:30:07.496Z,7.80
2023-04-16T15:32:34.465Z,9.87
2023-04-16T15:35:03.519Z,9.93
2023-04-16T15:37:31.235Z,9.23
2023-04-16T15:39:58.194Z,9.17
2023-04-16T15:42:25.164Z,7.50
2023-04-16T15:44:52.166Z,8.00
2023-04-16T15:47:19.123Z,8.47
2023-04-16T15:49:46.064Z,8.20
2023-04-16T15:52:13.178Z,8.50
2023-04-16T15:54:40.855Z,7.47
2023-04-16T15:57:07.811Z,8.53
2023-04-16T15:59:34.713Z,7.90
2023-04-16T16:02:02.092Z,8.47
2023-04-16T16:04:29.283Z,7.60
2023-04-16T16:06:56.917Z,8.20
2023-04-16T16:09:26.968Z,8.43
2023-04-16T16:11:55.184Z,8.73
2023-04-16T16:14:22.927Z,8.30
2023-04-16T16:16:49.868Z,8.20
2023-04-16T16:19:17.533Z,8.90
2023-04-16T16:21:44.476Z,8.00
2023-04-16T16:24:11.394Z,9.23
2023-04-16T16:26:38.301Z,9.13
2023-04-16T16:29:05.699Z,8.47
2023-04-16T16:31:32.723Z,9.40
2023-04-16T16:33:59.730Z,9.70
2023-04-16T16:36:27.398Z,8.13
2023-04-16T16:38:55.164Z,8.80
2023-04-16T16:41:22.508Z,9.53
2023-04-16T16:43:50.291Z,9.30
2023-04-16T16:46:17.233Z,9.03
2023-04-16T16:48:44.154Z,11.30
2023-04-16T16:51:11.361Z,10.40
2023-04-16T16:53:38.416Z,10.53
2023-04-16T16:56:05.833Z,9.83
2023-04-16T16:58:32.951Z,10.03
2023-04-16T17:01:00.017Z,9.23
2023-04-16T17:03:27.122Z,9.13
2023-04-16T17:05:54.263Z,9.37
2023-04-16T17:08:21.263Z,10.33
2023-04-16T17:10:48.277Z,9.73
2023-04-16T17:13:19.826Z,8.67
2023-04-16T17:15:47.437Z,9.77
2023-04-16T17:18:14.415Z,8.87
2023-04-16T17:20:41.318Z,9.50
2023-04-16T17:23:08.535Z,10.00
2023-04-16T17:25:35.646Z,10.10
2023-04-16T17:28:03.256Z,10.10
2023-04-16T17:30:31.595Z,9.63
2023-04-16T17:32:58.606Z,9.40
2023-04-16T17:35:25.793Z,9.70
2023-04-16T17:37:52.795Z,10.57
2023-04-16T17:40:19.768Z,9.70
2023-04-16T17:42:48.690Z,10.17
2023-04-16T17:45:16.072Z,9.43
2023-04-16T17:47:44.307Z,9.90
2023-04-16T17:50:11.956Z,10.53
2023-04-16T17:52:39.048Z,9.97
2023-04-16T17:55:07.704Z,10.00
2023-04-16T17:57:34.761Z,9.90
2023-04-16T18:00:02.531Z,10.40
2023-04-16T18:02:29.654Z,11.17
2023-04-16T18:04:56.714Z,10.37
2023-04-16T18:07:23.773Z,10.20
2023-04-16T18:09:50.678Z,10.10
2023-04-16T18:12:17.580Z,10.77
2023-04-16T18:14:44.825Z,10.43
2023-04-16T18:17:12.960Z,14.30
2023-04-16T18:19:40.753Z,9.60
2023-04-16T18:22:07.671Z,8.77
2023-04-16T18:24:36.429Z,9.00
2023-04-16T18:27:03.908Z,9.27
2023-04-16T18:29:33.868Z,8.87
2023-04-16T18:32:04.333Z,9.80
2023-04-16T18:34:32.268Z,10.20
2023-04-16T18:36:59.256Z,10.90
2023-04-16T18:39:26.385Z,9.47
2023-04-16T18:41:53.323Z,9.50
2023-04-16T18:44:20.747Z,9.93
2023-04-16T18:46:48.470Z,9.93
2023-04-16T18:49:15.488Z,10.40
2023-04-16T18:51:42.430Z,9.77
2023-04-16T18:54:09.382Z,9.53
2023-04-16T18:56:36.827Z,11.33
2023-04-16T18:59:03.926Z,11.20
2023-04-16T19:01:31.067Z,10.73
2023-04-16T19:03:58.135Z,10.90
2023-04-16T19:06:25.137Z,11.80
2023-04-16T19:08:52.037Z,10.93
2023-04-16T19:11:19.038Z,10.40
2023-04-16T19:13:46.320Z,12.20
2023-04-16T19:16:13.301Z,10.27
2023-04-16T19:18:40.371Z,10.90
2023-04-16T19:21:07.444Z,12.90
2023-04-16T19:23:34.464Z,9.87
2023-04-16T19:26:01.611Z,10.27
2023-04-16T19:28:28.880Z,11.60
2023-04-16T19:30:56.283Z,10.57
2023-04-16T19:33:23.262Z,11.43
2023-04-16T19:35:50.392Z,10.57
2023-04-16T19:38:17.421Z,10.10
2023-04-16T19:40:46.631Z,10.43
2023-04-16T19:43:13.925Z,11.97
2023-04-16T19:45:47.819Z,11.93
2023-04-16T19:48:14.985Z,11.10
2023-04-16T19:50:42.955Z,10.20
2023-04-16T19:53:11.169Z,11.33
2023-04-16T19:55:41.966Z,11.20
2023-04-16T19:58:09.699Z,9.83
2023-04-16T20:00:38.194Z,10.30
2023-04-16T20:03:06.060Z,9.47
2023-04-16T20:05:33.116Z,9.53
2023-04-16T20:08:00.222Z,8.80
2023-04-16T20:10:27.850Z,10.20
2023-04-16T20:12:54.798Z,9.50
2023-04-16T20:15:21.774Z,11.00
2023-04-16T20:17:48.766Z,10.70
2023-04-16T20:20:16.400Z,8.90
2023-04-16T20:22:43.770Z,9.80
2023-04-16T20:25:11.469Z,9.70
2023-04-16T20:27:38.524Z,9.70
2023-04-16T20:30:06.599Z,10.77
2023-04-16T20:32:33.623Z,10.80
2023-04-16T20:35:01.993Z,10.20
2023-04-16T20:37:29.154Z,9.27
2023-04-16T20:39:56.366Z,9.33
2023-04-16T20:42:26.228Z,9.80
2023-04-16T20:44:56.446Z,7.60
2023-04-16T20:47:23.939Z,8.80
2023-04-16T20:49:52.916Z,8.43
2023-04-16T20:52:20.496Z,10.83
2023-04-16T20:54:51.851Z,8.50
2023-04-16T20:57:19.001Z,8.03
2023-04-16T20:59:46.041Z,8.73
2023-04-16T21:02:13.269Z,9.03
2023-04-16T21:04:40.523Z,11.30
2023-04-16T21:07:07.716Z,8.67
2023-04-16T21:09:34.593Z,8.30
2023-04-16T21:12:01.818Z,8.37
2023-04-16T21:14:28.840Z,9.50
2023-04-16T21:16:55.840Z,8.27
2023-04-16T21:19:22.767Z,8.20
2023-04-16T21:21:49.751Z,8.50
2023-04-16T21:24:16.672Z,9.57
2023-04-16T21:26:43.604Z,8.87
2023-04-16T21:29:11.105Z,9.80
2023-04-16T21:31:38.219Z,10.03
2023-04-16T21:34:05.430Z,9.30
2023-04-16T21:36:33.647Z,9.13
2023-04-16T21:39:00.834Z,9.10
2023-04-16T21:41:27.966Z,9.87
2023-04-16T21:43:54.968Z,9.73
2023-04-16T21:46:22.562Z,8.70
2023-04-16T21:48:49.929Z,9.77
2023-04-16T21:51:18.050Z,8.70
2023-04-16T21:53:45.086Z,9.10
2023-04-16T21:56:12.047Z,8.53
2023-04-16T21:58:38.987Z,9.10
2023-04-16T22:01:06.510Z,9.23
2023-04-16T22:03:34.839Z,16.33
2023-04-16T22:06:02.127Z,9.80
2023-04-16T22:08:32.215Z,9.90
2023-04-16T22:11:01.997Z,10.20
2023-04-16T22:13:32.370Z,9.27
2023-04-16T22:16:02.578Z,9.67
2023-04-16T22:18:32.972Z,8.90
2023-04-16T22:21:00.575Z,10.33
2023-04-16T22:23:27.544Z,10.13
2023-04-16T22:25:56.014Z,9.27
2023-04-16T22:28:23.389Z,9.90
2023-04-16T22:30:51.092Z,9.03
2023-04-16T22:33:18.122Z,9.17
2023-04-16T22:35:45.646Z,10.03
2023-04-16T22:38:12.541Z,10.57
2023-04-16T22:40:39.499Z,9.57
2023-04-16T22:43:06.430Z,9.50
2023-04-16T22:45:34.581Z,9.77
2023-04-16T22:48:01.567Z,9.37
2023-04-16T22:50:31.065Z,10.23
2023-04-16T22:52:58.050Z,10.53
2023-04-16T22:55:24.944Z,11.33
2023-04-16T22:57:52.074Z,9.30
2023-04-16T23:00:19.388Z,10.20
2023-04-16T23:02:46.579Z,10.90
2023-04-16T23:05:13.637Z,10.13
2023-04-16T23:07:40.573Z,10.00
2023-04-16T23:10:08.736Z,9.93
2023-04-16T23:12:37.498Z,10.30
2023-04-16T23:15:06.780Z,10.40
2023-04-16T23:17:35.088Z,10.73
2023-04-16T23:20:02.579Z,10.23
2023-04-16T23:22:29.548Z,10.50
2023-04-16T23:24:56.610Z,9.80
2023-04-16T23:27:23.585Z,9.70
2023-04-16T23:29:50.735Z,10.40
2023-04-16T23:32:17.730Z,9.20
2023-04-16T23:34:44.849Z,10.60
2023-04-16T23:37:11.928Z,10.67
2023-04-16T23:39:38.910Z,11.10
2023-04-16T23:42:06.128Z,10.70
2023-04-16T23:44:33.277Z,10.13
2023-04-16T23:47:00.499Z,10.33
2023-04-16T23:49:27.463Z,10.90
2023-04-16T23:51:54.442Z,10.57
2023-04-16T23:54:21.423Z,9.43
2023-04-16T23:56:48.538Z,10.93
2023-04-16T23:59:16.730Z,11.37
